GJOHN PAJN-PAYA
Flight info
| Callsign | GJOHN |
|---|---|
| Flight time | 1h 52m |
| Altitude | 8500 |
| Route | JUNEAU INTL VP046 VP010 SSR ASORT CSPER HOLIE YAKUTAT |
| Aircraft | C182/L-VGDW/C |
Departure
| Time | 2026-04-27 13:28 |
|---|---|
| Airport | Juneau International Airport (PAJN) |
Arrival
| Time | 2026-04-27 15:20 |
|---|---|
| Airport | Yakutat Airport (PAYA) |
| Time | Latitude | Longitude | Altitude | Speed | Heading |
|---|---|---|---|---|---|
| 2026-04-27 13:24 | 58.36021 | -134.59269 | 7 ft | 0 kts | 127° |
| 2026-04-27 13:26 | 58.35998 | -134.59266 | 7 ft | 10 kts | 200° |
| 2026-04-27 13:26 | 58.35926 | -134.59343 | 7 ft | 12 kts | 250° |
| 2026-04-27 13:26 | 58.35868 | -134.59475 | 7 ft | 15 kts | 273° |
| 2026-04-27 13:27 | 58.35870 | -134.59686 | 7 ft | 15 kts | 200° |
| 2026-04-27 13:27 | 58.35801 | -134.59709 | 7 ft | 12 kts | 163° |
| 2026-04-27 13:27 | 58.35763 | -134.59544 | 7 ft | 30 kts | 104° |
| 2026-04-27 13:27 | 58.35662 | -134.58815 | 54 ft | 75 kts | 103° |
| 2026-04-27 13:28 | 58.35517 | -134.57760 | 245 ft | 86 kts | 102° |
| 2026-04-27 13:28 | 58.35375 | -134.56647 | 507 ft | 87 kts | 101° |
| 2026-04-27 13:28 | 58.35206 | -134.55510 | 693 ft | 91 kts | 105° |
| 2026-04-27 13:28 | 58.34999 | -134.54379 | 857 ft | 91 kts | 123° |
| 2026-04-27 13:29 | 58.34445 | -134.53929 | 1012 ft | 91 kts | 185° |
| 2026-04-27 13:29 | 58.33979 | -134.54630 | 1173 ft | 89 kts | 247° |
| 2026-04-27 13:29 | 58.34065 | -134.55737 | 1343 ft | 86 kts | 295° |
| 2026-04-27 13:29 | 58.34282 | -134.56809 | 1526 ft | 86 kts | 285° |
| 2026-04-27 13:30 | 58.34417 | -134.57905 | 1705 ft | 85 kts | 281° |
| 2026-04-27 13:30 | 58.34526 | -134.59048 | 1937 ft | 91 kts | 279° |
| 2026-04-27 13:30 | 58.34631 | -134.60293 | 2182 ft | 98 kts | 279° |
| 2026-04-27 13:30 | 58.34737 | -134.61597 | 2423 ft | 102 kts | 279° |
| 2026-04-27 13:31 | 58.34846 | -134.62949 | 2652 ft | 105 kts | 279° |
| 2026-04-27 13:31 | 58.34957 | -134.64337 | 2883 ft | 107 kts | 279° |
| 2026-04-27 13:31 | 58.35069 | -134.65740 | 3112 ft | 108 kts | 279° |
| 2026-04-27 13:31 | 58.35181 | -134.67154 | 3340 ft | 108 kts | 279° |
| 2026-04-27 13:32 | 58.35282 | -134.68418 | 3543 ft | 109 kts | 279° |
| 2026-04-27 13:32 | 58.35449 | -134.69821 | 3767 ft | 109 kts | 288° |
| 2026-04-27 13:32 | 58.35708 | -134.71172 | 3992 ft | 108 kts | 291° |
| 2026-04-27 13:32 | 58.35982 | -134.72504 | 4216 ft | 108 kts | 291° |
| 2026-04-27 13:33 | 58.36259 | -134.73826 | 4438 ft | 107 kts | 292° |
| 2026-04-27 13:33 | 58.36541 | -134.75158 | 4663 ft | 107 kts | 292° |
| 2026-04-27 13:33 | 58.36819 | -134.76468 | 4886 ft | 106 kts | 292° |
| 2026-04-27 13:33 | 58.37096 | -134.77770 | 5108 ft | 106 kts | 291° |
| 2026-04-27 13:34 | 58.37370 | -134.79061 | 5329 ft | 105 kts | 291° |
| 2026-04-27 13:34 | 58.37642 | -134.80343 | 5550 ft | 104 kts | 291° |
| 2026-04-27 13:34 | 58.37912 | -134.81613 | 5771 ft | 103 kts | 291° |
| 2026-04-27 13:34 | 58.38178 | -134.82871 | 5991 ft | 102 kts | 291° |
| 2026-04-27 13:35 | 58.38443 | -134.84118 | 6211 ft | 101 kts | 291° |
| 2026-04-27 13:35 | 58.38703 | -134.85348 | 6430 ft | 100 kts | 291° |
| 2026-04-27 13:35 | 58.38961 | -134.86567 | 6650 ft | 99 kts | 291° |
| 2026-04-27 13:35 | 58.39216 | -134.87770 | 6860 ft | 98 kts | 291° |
| 2026-04-27 13:36 | 58.39474 | -134.88993 | 7033 ft | 101 kts | 291° |
| 2026-04-27 13:36 | 58.39739 | -134.90246 | 7208 ft | 103 kts | 291° |
| 2026-04-27 13:36 | 58.40010 | -134.91527 | 7386 ft | 103 kts | 291° |
| 2026-04-27 13:36 | 58.40279 | -134.92799 | 7562 ft | 104 kts | 291° |
| 2026-04-27 13:37 | 58.40548 | -134.94073 | 7737 ft | 104 kts | 291° |
| 2026-04-27 13:37 | 58.40799 | -134.95357 | 7909 ft | 104 kts | 282° |
| 2026-04-27 13:37 | 58.40611 | -134.96634 | 8067 ft | 105 kts | 229° |
| 2026-04-27 13:37 | 58.39945 | -134.97110 | 8231 ft | 107 kts | 179° |
| 2026-04-27 13:38 | 58.39214 | -134.96977 | 8411 ft | 105 kts | 179° |
| 2026-04-27 13:38 | 58.38468 | -134.97018 | 8493 ft | 113 kts | 187° |
| 2026-04-27 13:38 | 58.37662 | -134.97242 | 8503 ft | 119 kts | 192° |
| 2026-04-27 13:38 | 58.36841 | -134.97549 | 8504 ft | 122 kts | 194° |
| 2026-04-27 13:39 | 58.36004 | -134.97893 | 8506 ft | 124 kts | 194° |
| 2026-04-27 13:39 | 58.35161 | -134.98252 | 8506 ft | 125 kts | 195° |
| 2026-04-27 13:39 | 58.34309 | -134.98620 | 8506 ft | 126 kts | 195° |
| 2026-04-27 13:39 | 58.33453 | -134.98994 | 8504 ft | 127 kts | 195° |
| 2026-04-27 13:40 | 58.32593 | -134.99370 | 8503 ft | 127 kts | 195° |
| 2026-04-27 13:40 | 58.31721 | -134.99751 | 8502 ft | 127 kts | 195° |
| 2026-04-27 13:40 | 58.30866 | -135.00126 | 8502 ft | 127 kts | 195° |
| 2026-04-27 13:40 | 58.30002 | -135.00504 | 8502 ft | 127 kts | 195° |
| 2026-04-27 13:41 | 58.29139 | -135.00882 | 8502 ft | 128 kts | 195° |
| 2026-04-27 13:41 | 58.28275 | -135.01260 | 8502 ft | 128 kts | 195° |
| 2026-04-27 13:41 | 58.27412 | -135.01638 | 8502 ft | 128 kts | 195° |
| 2026-04-27 13:41 | 58.26548 | -135.02016 | 8502 ft | 128 kts | 195° |
| 2026-04-27 13:42 | 58.25674 | -135.02398 | 8502 ft | 128 kts | 195° |
| 2026-04-27 13:42 | 58.24811 | -135.02775 | 8502 ft | 128 kts | 195° |
| 2026-04-27 13:42 | 58.23947 | -135.03153 | 8502 ft | 128 kts | 195° |
| 2026-04-27 13:42 | 58.23083 | -135.03530 | 8502 ft | 128 kts | 195° |
| 2026-04-27 13:43 | 58.22219 | -135.03907 | 8502 ft | 128 kts | 195° |
| 2026-04-27 13:43 | 58.21354 | -135.04284 | 8502 ft | 128 kts | 195° |
| 2026-04-27 13:43 | 58.20491 | -135.04660 | 8503 ft | 128 kts | 195° |
| 2026-04-27 13:43 | 58.19628 | -135.05037 | 8503 ft | 128 kts | 195° |
| 2026-04-27 13:44 | 58.18887 | -135.05864 | 8495 ft | 125 kts | 233° |
| 2026-04-27 13:44 | 58.18642 | -135.07400 | 8500 ft | 123 kts | 268° |
| 2026-04-27 13:44 | 58.18630 | -135.09034 | 8506 ft | 123 kts | 269° |
| 2026-04-27 13:44 | 58.18594 | -135.10662 | 8507 ft | 124 kts | 267° |
| 2026-04-27 13:45 | 58.18529 | -135.12275 | 8507 ft | 124 kts | 265° |
| 2026-04-27 13:45 | 58.18448 | -135.13895 | 8506 ft | 124 kts | 265° |
| 2026-04-27 13:45 | 58.18360 | -135.15519 | 8506 ft | 124 kts | 264° |
| 2026-04-27 13:45 | 58.18269 | -135.17146 | 8506 ft | 124 kts | 264° |
| 2026-04-27 13:46 | 58.18177 | -135.18771 | 8506 ft | 124 kts | 264° |
| 2026-04-27 13:46 | 58.18083 | -135.20397 | 8506 ft | 125 kts | 264° |
| 2026-04-27 13:46 | 58.17989 | -135.22033 | 8506 ft | 125 kts | 264° |
| 2026-04-27 13:46 | 58.17895 | -135.23666 | 8507 ft | 125 kts | 264° |
| 2026-04-27 13:47 | 58.17839 | -135.25301 | 8501 ft | 125 kts | 276° |
| 2026-04-27 13:47 | 58.18151 | -135.26832 | 8500 ft | 125 kts | 297° |
| 2026-04-27 13:47 | 58.18586 | -135.28260 | 8502 ft | 125 kts | 300° |
| 2026-04-27 13:47 | 58.19042 | -135.29670 | 8502 ft | 125 kts | 301° |
| 2026-04-27 13:48 | 58.19507 | -135.31089 | 8502 ft | 125 kts | 301° |
| 2026-04-27 13:48 | 58.19970 | -135.32490 | 8501 ft | 126 kts | 301° |
| 2026-04-27 13:48 | 58.20433 | -135.33888 | 8501 ft | 126 kts | 301° |
| 2026-04-27 13:48 | 58.20898 | -135.35290 | 8501 ft | 126 kts | 301° |
| 2026-04-27 13:49 | 58.21362 | -135.36689 | 8501 ft | 126 kts | 301° |
| 2026-04-27 13:49 | 58.21826 | -135.38088 | 8501 ft | 126 kts | 301° |
| 2026-04-27 13:49 | 58.22291 | -135.39491 | 8500 ft | 126 kts | 301° |
| 2026-04-27 13:49 | 58.22754 | -135.40891 | 8500 ft | 126 kts | 301° |
| 2026-04-27 13:50 | 58.23218 | -135.42292 | 8500 ft | 126 kts | 301° |
| 2026-04-27 13:50 | 58.23682 | -135.43695 | 8499 ft | 126 kts | 301° |
| 2026-04-27 13:50 | 58.24146 | -135.45097 | 8499 ft | 126 kts | 301° |
| 2026-04-27 13:50 | 58.24611 | -135.46505 | 8498 ft | 126 kts | 301° |
| 2026-04-27 13:51 | 58.25081 | -135.47927 | 8497 ft | 126 kts | 301° |
| 2026-04-27 13:51 | 58.25545 | -135.49333 | 8497 ft | 126 kts | 301° |
| 2026-04-27 13:51 | 58.26010 | -135.50741 | 8496 ft | 126 kts | 301° |
| 2026-04-27 13:51 | 58.26474 | -135.52147 | 8495 ft | 126 kts | 301° |
| 2026-04-27 13:52 | 58.26938 | -135.53556 | 8494 ft | 126 kts | 301° |
| 2026-04-27 13:52 | 58.27401 | -135.54964 | 8494 ft | 126 kts | 301° |
| 2026-04-27 13:52 | 58.27865 | -135.56372 | 8493 ft | 126 kts | 301° |
| 2026-04-27 13:52 | 58.28330 | -135.57784 | 8492 ft | 126 kts | 301° |
| 2026-04-27 13:53 | 58.29256 | -135.60604 | 8490 ft | 126 kts | 301° |
| 2026-04-27 13:53 | 58.29720 | -135.62016 | 8489 ft | 126 kts | 301° |
| 2026-04-27 13:53 | 58.30184 | -135.63429 | 8489 ft | 126 kts | 301° |
| 2026-04-27 13:54 | 58.30647 | -135.64844 | 8488 ft | 126 kts | 301° |
| 2026-04-27 13:54 | 58.31111 | -135.66257 | 8488 ft | 126 kts | 301° |
| 2026-04-27 13:54 | 58.31574 | -135.67673 | 8487 ft | 126 kts | 301° |
| 2026-04-27 13:54 | 58.32043 | -135.69106 | 8487 ft | 126 kts | 301° |
| 2026-04-27 13:55 | 58.32506 | -135.70520 | 8486 ft | 126 kts | 301° |
| 2026-04-27 13:55 | 58.32969 | -135.71937 | 8486 ft | 126 kts | 301° |
| 2026-04-27 13:55 | 58.33432 | -135.73352 | 8486 ft | 126 kts | 301° |
| 2026-04-27 13:55 | 58.33894 | -135.74768 | 8486 ft | 126 kts | 301° |
| 2026-04-27 13:56 | 58.34357 | -135.76187 | 8485 ft | 126 kts | 301° |
| 2026-04-27 13:56 | 58.34820 | -135.77605 | 8485 ft | 126 kts | 301° |
| 2026-04-27 13:56 | 58.35282 | -135.79023 | 8485 ft | 126 kts | 301° |
| 2026-04-27 13:56 | 58.35745 | -135.80444 | 8485 ft | 126 kts | 301° |
| 2026-04-27 13:57 | 58.36113 | -135.81941 | 8478 ft | 126 kts | 279° |
| 2026-04-27 13:57 | 58.35980 | -135.83560 | 8482 ft | 125 kts | 252° |
| 2026-04-27 13:57 | 58.35679 | -135.85130 | 8486 ft | 125 kts | 249° |
| 2026-04-27 13:57 | 58.35369 | -135.86671 | 8487 ft | 125 kts | 249° |
| 2026-04-27 13:58 | 58.35059 | -135.88212 | 8487 ft | 125 kts | 249° |
| 2026-04-27 13:58 | 58.34749 | -135.89755 | 8487 ft | 125 kts | 249° |
| 2026-04-27 13:58 | 58.34440 | -135.91299 | 8486 ft | 125 kts | 249° |
| 2026-04-27 13:58 | 58.34132 | -135.92841 | 8487 ft | 125 kts | 249° |
| 2026-04-27 13:59 | 58.33822 | -135.94387 | 8487 ft | 125 kts | 249° |
| 2026-04-27 13:59 | 58.33513 | -135.95932 | 8487 ft | 125 kts | 249° |
| 2026-04-27 13:59 | 58.33204 | -135.97476 | 8487 ft | 125 kts | 249° |
| 2026-04-27 13:59 | 58.32894 | -135.99023 | 8487 ft | 125 kts | 249° |
| 2026-04-27 14:00 | 58.32585 | -136.00563 | 8488 ft | 125 kts | 249° |
| 2026-04-27 14:00 | 58.32280 | -136.02069 | 8488 ft | 119 kts | 253° |
| 2026-04-27 14:00 | 58.31987 | -136.03512 | 8472 ft | 116 kts | 257° |
| 2026-04-27 14:00 | 58.31701 | -136.04935 | 8470 ft | 114 kts | 257° |
| 2026-04-27 14:01 | 58.31417 | -136.06354 | 8473 ft | 113 kts | 257° |
| 2026-04-27 14:01 | 58.31139 | -136.07741 | 8478 ft | 112 kts | 257° |
| 2026-04-27 14:01 | 58.30862 | -136.09121 | 8482 ft | 112 kts | 257° |
| 2026-04-27 14:01 | 58.30585 | -136.10496 | 8485 ft | 111 kts | 257° |
| 2026-04-27 14:02 | 58.30309 | -136.11866 | 8487 ft | 111 kts | 257° |
| 2026-04-27 14:02 | 58.30127 | -136.12771 | 8487 ft | 111 kts | 257° |
| 2026-04-27 14:02 | 58.29757 | -136.14604 | 8488 ft | 111 kts | 257° |
| 2026-04-27 14:02 | 58.29479 | -136.15976 | 8489 ft | 111 kts | 257° |
| 2026-04-27 14:03 | 58.29202 | -136.17348 | 8489 ft | 112 kts | 257° |
| 2026-04-27 14:03 | 58.28923 | -136.18725 | 8489 ft | 112 kts | 257° |
| 2026-04-27 14:03 | 58.28644 | -136.20101 | 8489 ft | 112 kts | 257° |
| 2026-04-27 14:03 | 58.28365 | -136.21479 | 8489 ft | 112 kts | 257° |
| 2026-04-27 14:04 | 58.28176 | -136.22412 | 8489 ft | 112 kts | 257° |
| 2026-04-27 14:04 | 58.27896 | -136.23790 | 8489 ft | 112 kts | 257° |
| 2026-04-27 14:04 | 58.27615 | -136.25170 | 8490 ft | 112 kts | 257° |
| 2026-04-27 14:04 | 58.27335 | -136.26551 | 8490 ft | 112 kts | 257° |
| 2026-04-27 14:05 | 58.27054 | -136.27931 | 8490 ft | 112 kts | 257° |
| 2026-04-27 14:05 | 58.26773 | -136.29310 | 8490 ft | 112 kts | 257° |
| 2026-04-27 14:05 | 58.26492 | -136.30689 | 8490 ft | 112 kts | 257° |
| 2026-04-27 14:05 | 58.26211 | -136.32070 | 8490 ft | 112 kts | 257° |
| 2026-04-27 14:06 | 58.25929 | -136.33451 | 8490 ft | 112 kts | 257° |
| 2026-04-27 14:06 | 58.25648 | -136.34829 | 8490 ft | 112 kts | 257° |
| 2026-04-27 14:06 | 58.25363 | -136.36226 | 8490 ft | 112 kts | 257° |
| 2026-04-27 14:06 | 58.25081 | -136.37607 | 8490 ft | 112 kts | 257° |
| 2026-04-27 14:07 | 58.24799 | -136.38985 | 8490 ft | 112 kts | 257° |
| 2026-04-27 14:07 | 58.24517 | -136.40362 | 8490 ft | 112 kts | 257° |
| 2026-04-27 14:07 | 58.24234 | -136.41742 | 8491 ft | 112 kts | 257° |
| 2026-04-27 14:07 | 58.23952 | -136.43118 | 8491 ft | 112 kts | 257° |
| 2026-04-27 14:08 | 58.23669 | -136.44498 | 8491 ft | 112 kts | 257° |
| 2026-04-27 14:08 | 58.23386 | -136.45876 | 8491 ft | 112 kts | 257° |
| 2026-04-27 14:08 | 58.23103 | -136.47256 | 8491 ft | 112 kts | 257° |
| 2026-04-27 14:08 | 58.22820 | -136.48632 | 8491 ft | 112 kts | 257° |
| 2026-04-27 14:09 | 58.22537 | -136.50011 | 8491 ft | 112 kts | 256° |
| 2026-04-27 14:09 | 58.22253 | -136.51389 | 8491 ft | 112 kts | 256° |
| 2026-04-27 14:09 | 58.21965 | -136.52787 | 8491 ft | 113 kts | 256° |
| 2026-04-27 14:09 | 58.21680 | -136.54169 | 8491 ft | 113 kts | 256° |
| 2026-04-27 14:10 | 58.21395 | -136.55550 | 8491 ft | 113 kts | 256° |
| 2026-04-27 14:10 | 58.21110 | -136.56932 | 8491 ft | 113 kts | 256° |
| 2026-04-27 14:10 | 58.20825 | -136.58314 | 8491 ft | 113 kts | 256° |
| 2026-04-27 14:10 | 58.20539 | -136.59697 | 8492 ft | 113 kts | 256° |
| 2026-04-27 14:11 | 58.20253 | -136.61078 | 8492 ft | 113 kts | 256° |
| 2026-04-27 14:11 | 58.19967 | -136.62460 | 8496 ft | 113 kts | 256° |
| 2026-04-27 14:11 | 58.19698 | -136.63851 | 8497 ft | 111 kts | 263° |
| 2026-04-27 14:11 | 58.19743 | -136.65264 | 8504 ft | 107 kts | 284° |
| 2026-04-27 14:12 | 58.19910 | -136.66636 | 8504 ft | 107 kts | 287° |
| 2026-04-27 14:12 | 58.20097 | -136.68000 | 8503 ft | 107 kts | 287° |
| 2026-04-27 14:12 | 58.20290 | -136.69366 | 8502 ft | 108 kts | 287° |
| 2026-04-27 14:12 | 58.20486 | -136.70738 | 8501 ft | 108 kts | 287° |
| 2026-04-27 14:13 | 58.20684 | -136.72130 | 8500 ft | 108 kts | 287° |
| 2026-04-27 14:13 | 58.20878 | -136.73490 | 8500 ft | 108 kts | 287° |
| 2026-04-27 14:13 | 58.21078 | -136.74886 | 8499 ft | 108 kts | 288° |
| 2026-04-27 14:13 | 58.21448 | -136.76120 | 8498 ft | 108 kts | 305° |
| 2026-04-27 14:14 | 58.21916 | -136.77238 | 8498 ft | 109 kts | 308° |
| 2026-04-27 14:14 | 58.22399 | -136.78340 | 8498 ft | 109 kts | 308° |
| 2026-04-27 14:14 | 58.22889 | -136.79439 | 8498 ft | 109 kts | 308° |
| 2026-04-27 14:14 | 58.23382 | -136.80537 | 8498 ft | 109 kts | 308° |
| 2026-04-27 14:15 | 58.23876 | -136.81635 | 8498 ft | 110 kts | 308° |
| 2026-04-27 14:15 | 58.24371 | -136.82733 | 8498 ft | 110 kts | 308° |
| 2026-04-27 14:15 | 58.24866 | -136.83832 | 8498 ft | 110 kts | 309° |
| 2026-04-27 14:15 | 58.25363 | -136.84934 | 8498 ft | 110 kts | 309° |
| 2026-04-27 14:16 | 58.25861 | -136.86038 | 8498 ft | 110 kts | 309° |
| 2026-04-27 14:16 | 58.26360 | -136.87147 | 8498 ft | 111 kts | 308° |
| 2026-04-27 14:16 | 58.26866 | -136.88269 | 8498 ft | 111 kts | 308° |
| 2026-04-27 14:16 | 58.27365 | -136.89379 | 8498 ft | 111 kts | 308° |
| 2026-04-27 14:17 | 58.27866 | -136.90492 | 8498 ft | 111 kts | 309° |
| 2026-04-27 14:17 | 58.28367 | -136.91606 | 8497 ft | 111 kts | 309° |
| 2026-04-27 14:17 | 58.28870 | -136.92725 | 8498 ft | 111 kts | 309° |
| 2026-04-27 14:17 | 58.29373 | -136.93844 | 8498 ft | 112 kts | 309° |
| 2026-04-27 14:18 | 58.29876 | -136.94966 | 8498 ft | 112 kts | 308° |
| 2026-04-27 14:18 | 58.30379 | -136.96085 | 8498 ft | 112 kts | 308° |
| 2026-04-27 14:18 | 58.30884 | -136.97211 | 8498 ft | 112 kts | 308° |
| 2026-04-27 14:18 | 58.31390 | -136.98340 | 8497 ft | 112 kts | 308° |
| 2026-04-27 14:19 | 58.31897 | -136.99471 | 8498 ft | 113 kts | 308° |
| 2026-04-27 14:19 | 58.32405 | -137.00605 | 8498 ft | 113 kts | 308° |
| 2026-04-27 14:19 | 58.32913 | -137.01738 | 8498 ft | 113 kts | 308° |
| 2026-04-27 14:19 | 58.33427 | -137.02888 | 8498 ft | 113 kts | 308° |
| 2026-04-27 14:20 | 58.33936 | -137.04025 | 8498 ft | 113 kts | 308° |
| 2026-04-27 14:20 | 58.34443 | -137.05160 | 8498 ft | 113 kts | 308° |
| 2026-04-27 14:20 | 58.34951 | -137.06297 | 8498 ft | 113 kts | 308° |
| 2026-04-27 14:20 | 58.35459 | -137.07434 | 8498 ft | 113 kts | 308° |
| 2026-04-27 14:21 | 58.35969 | -137.08575 | 8498 ft | 113 kts | 308° |
| 2026-04-27 14:21 | 58.36478 | -137.09718 | 8497 ft | 114 kts | 308° |
| 2026-04-27 14:21 | 58.36991 | -137.10867 | 8497 ft | 114 kts | 308° |
| 2026-04-27 14:21 | 58.37503 | -137.12014 | 8497 ft | 114 kts | 308° |
| 2026-04-27 14:22 | 58.38014 | -137.13163 | 8497 ft | 114 kts | 308° |
| 2026-04-27 14:22 | 58.38526 | -137.14313 | 8497 ft | 114 kts | 308° |
| 2026-04-27 14:22 | 58.39039 | -137.15463 | 8498 ft | 114 kts | 308° |
| 2026-04-27 14:22 | 58.39550 | -137.16613 | 8497 ft | 114 kts | 308° |
| 2026-04-27 14:23 | 58.40065 | -137.17770 | 8497 ft | 115 kts | 308° |
| 2026-04-27 14:23 | 58.40586 | -137.18943 | 8497 ft | 115 kts | 308° |
| 2026-04-27 14:23 | 58.41102 | -137.20104 | 8498 ft | 115 kts | 308° |
| 2026-04-27 14:23 | 58.41618 | -137.21265 | 8498 ft | 115 kts | 308° |
| 2026-04-27 14:24 | 58.42134 | -137.22429 | 8498 ft | 115 kts | 308° |
| 2026-04-27 14:24 | 58.42651 | -137.23594 | 8498 ft | 115 kts | 308° |
| 2026-04-27 14:24 | 58.43171 | -137.24768 | 8490 ft | 116 kts | 308° |
| 2026-04-27 14:24 | 58.43692 | -137.25943 | 8488 ft | 116 kts | 308° |
| 2026-04-27 14:25 | 58.44214 | -137.27120 | 8487 ft | 116 kts | 308° |
| 2026-04-27 14:25 | 58.44735 | -137.28298 | 8487 ft | 116 kts | 308° |
| 2026-04-27 14:25 | 58.45256 | -137.29476 | 8487 ft | 116 kts | 308° |
| 2026-04-27 14:25 | 58.45778 | -137.30655 | 8487 ft | 116 kts | 308° |
| 2026-04-27 14:26 | 58.46299 | -137.31834 | 8487 ft | 117 kts | 308° |
| 2026-04-27 14:26 | 58.46829 | -137.33034 | 8487 ft | 117 kts | 308° |
| 2026-04-27 14:26 | 58.47354 | -137.34222 | 8487 ft | 117 kts | 308° |
| 2026-04-27 14:26 | 58.47878 | -137.35410 | 8487 ft | 117 kts | 308° |
| 2026-04-27 14:27 | 58.48403 | -137.36600 | 8487 ft | 117 kts | 308° |
| 2026-04-27 14:27 | 58.48928 | -137.37791 | 8487 ft | 117 kts | 308° |
| 2026-04-27 14:27 | 58.49453 | -137.38983 | 8487 ft | 118 kts | 308° |
| 2026-04-27 14:27 | 58.49980 | -137.40179 | 8487 ft | 118 kts | 308° |
| 2026-04-27 14:28 | 58.50508 | -137.41378 | 8487 ft | 118 kts | 308° |
| 2026-04-27 14:28 | 58.51035 | -137.42574 | 8487 ft | 118 kts | 308° |
| 2026-04-27 14:28 | 58.51569 | -137.43788 | 8487 ft | 118 kts | 308° |
| 2026-04-27 14:28 | 58.52098 | -137.44993 | 8487 ft | 118 kts | 308° |
| 2026-04-27 14:29 | 58.52628 | -137.46198 | 8487 ft | 118 kts | 308° |
| 2026-04-27 14:29 | 58.53157 | -137.47403 | 8487 ft | 119 kts | 308° |
| 2026-04-27 14:29 | 58.53688 | -137.48614 | 8487 ft | 119 kts | 308° |
| 2026-04-27 14:29 | 58.54220 | -137.49827 | 8487 ft | 119 kts | 308° |
| 2026-04-27 14:30 | 58.54752 | -137.51040 | 8487 ft | 119 kts | 308° |
| 2026-04-27 14:30 | 58.55285 | -137.52256 | 8487 ft | 119 kts | 308° |
| 2026-04-27 14:30 | 58.55819 | -137.53475 | 8487 ft | 120 kts | 308° |
| 2026-04-27 14:30 | 58.56350 | -137.54689 | 8487 ft | 120 kts | 308° |
| 2026-04-27 14:31 | 58.56886 | -137.55914 | 8487 ft | 120 kts | 308° |
| 2026-04-27 14:31 | 58.57419 | -137.57133 | 8487 ft | 120 kts | 308° |
| 2026-04-27 14:31 | 58.57954 | -137.58356 | 8487 ft | 120 kts | 308° |
| 2026-04-27 14:31 | 58.58497 | -137.59600 | 8487 ft | 120 kts | 308° |
| 2026-04-27 14:32 | 58.59034 | -137.60829 | 8487 ft | 121 kts | 308° |
| 2026-04-27 14:32 | 58.59567 | -137.62051 | 8487 ft | 121 kts | 308° |
| 2026-04-27 14:32 | 58.60105 | -137.63284 | 8487 ft | 121 kts | 308° |
| 2026-04-27 14:32 | 58.60643 | -137.64517 | 8487 ft | 121 kts | 308° |
| 2026-04-27 14:33 | 58.61181 | -137.65753 | 8487 ft | 121 kts | 308° |
| 2026-04-27 14:33 | 58.61719 | -137.66989 | 8488 ft | 121 kts | 308° |
| 2026-04-27 14:33 | 58.62264 | -137.68241 | 8488 ft | 121 kts | 308° |
| 2026-04-27 14:33 | 58.62802 | -137.69479 | 8487 ft | 121 kts | 308° |
| 2026-04-27 14:34 | 58.63342 | -137.70721 | 8487 ft | 121 kts | 308° |
| 2026-04-27 14:34 | 58.63883 | -137.71965 | 8487 ft | 122 kts | 308° |
| 2026-04-27 14:34 | 58.64424 | -137.73211 | 8487 ft | 122 kts | 308° |
| 2026-04-27 14:34 | 58.64966 | -137.74459 | 8488 ft | 122 kts | 308° |
| 2026-04-27 14:35 | 58.65508 | -137.75708 | 8488 ft | 122 kts | 308° |
| 2026-04-27 14:35 | 58.66050 | -137.76957 | 8487 ft | 122 kts | 308° |
| 2026-04-27 14:35 | 58.66593 | -137.78210 | 8487 ft | 122 kts | 307° |
| 2026-04-27 14:35 | 58.67142 | -137.79479 | 8488 ft | 122 kts | 307° |
| 2026-04-27 14:36 | 58.67684 | -137.80731 | 8488 ft | 122 kts | 307° |
| 2026-04-27 14:36 | 58.68228 | -137.81989 | 8488 ft | 122 kts | 307° |
| 2026-04-27 14:36 | 58.68771 | -137.83243 | 8488 ft | 122 kts | 307° |
| 2026-04-27 14:36 | 58.69314 | -137.84500 | 8488 ft | 122 kts | 307° |
| 2026-04-27 14:37 | 58.69858 | -137.85758 | 8489 ft | 122 kts | 307° |
| 2026-04-27 14:37 | 58.70401 | -137.87016 | 8488 ft | 122 kts | 307° |
| 2026-04-27 14:37 | 58.70940 | -137.88267 | 8489 ft | 123 kts | 307° |
| 2026-04-27 14:37 | 58.71486 | -137.89531 | 8489 ft | 123 kts | 307° |
| 2026-04-27 14:38 | 58.72029 | -137.90793 | 8489 ft | 123 kts | 307° |
| 2026-04-27 14:38 | 58.72574 | -137.92057 | 8489 ft | 123 kts | 307° |
| 2026-04-27 14:38 | 58.73120 | -137.93326 | 8489 ft | 123 kts | 307° |
| 2026-04-27 14:38 | 58.73667 | -137.94596 | 8489 ft | 123 kts | 307° |
| 2026-04-27 14:39 | 58.74213 | -137.95865 | 8489 ft | 123 kts | 307° |
| 2026-04-27 14:39 | 58.74767 | -137.97154 | 8489 ft | 124 kts | 307° |
| 2026-04-27 14:39 | 58.75314 | -137.98427 | 8490 ft | 124 kts | 307° |
| 2026-04-27 14:39 | 58.75862 | -137.99702 | 8490 ft | 124 kts | 307° |
| 2026-04-27 14:40 | 58.76407 | -138.00967 | 8493 ft | 122 kts | 306° |
| 2026-04-27 14:40 | 58.76934 | -138.02200 | 8493 ft | 117 kts | 308° |
| 2026-04-27 14:40 | 58.77442 | -138.03389 | 8492 ft | 115 kts | 309° |
| 2026-04-27 14:40 | 58.77952 | -138.04578 | 8497 ft | 113 kts | 309° |
| 2026-04-27 14:41 | 58.78448 | -138.05737 | 8499 ft | 112 kts | 309° |
| 2026-04-27 14:41 | 58.78940 | -138.06887 | 8499 ft | 111 kts | 309° |
| 2026-04-27 14:41 | 58.79431 | -138.08034 | 8500 ft | 111 kts | 309° |
| 2026-04-27 14:41 | 58.79921 | -138.09180 | 8500 ft | 111 kts | 309° |
| 2026-04-27 14:42 | 58.80410 | -138.10323 | 8501 ft | 111 kts | 309° |
| 2026-04-27 14:42 | 58.80899 | -138.11468 | 8501 ft | 111 kts | 309° |
| 2026-04-27 14:42 | 58.81387 | -138.12611 | 8501 ft | 111 kts | 309° |
| 2026-04-27 14:42 | 58.81876 | -138.13756 | 8501 ft | 111 kts | 309° |
| 2026-04-27 14:43 | 58.82363 | -138.14898 | 8502 ft | 111 kts | 309° |
| 2026-04-27 14:43 | 58.82851 | -138.16042 | 8502 ft | 111 kts | 309° |
| 2026-04-27 14:43 | 58.83339 | -138.17188 | 8502 ft | 111 kts | 309° |
| 2026-04-27 14:43 | 58.83828 | -138.18335 | 8502 ft | 111 kts | 308° |
| 2026-04-27 14:44 | 58.84318 | -138.19486 | 8502 ft | 111 kts | 308° |
| 2026-04-27 14:44 | 58.84810 | -138.20642 | 8503 ft | 111 kts | 308° |
| 2026-04-27 14:44 | 58.85301 | -138.21796 | 8503 ft | 111 kts | 308° |
| 2026-04-27 14:44 | 58.85792 | -138.22951 | 8503 ft | 111 kts | 308° |
| 2026-04-27 14:45 | 58.86290 | -138.24122 | 8503 ft | 111 kts | 308° |
| 2026-04-27 14:45 | 58.86781 | -138.25279 | 8503 ft | 112 kts | 308° |
| 2026-04-27 14:45 | 58.87273 | -138.26438 | 8503 ft | 112 kts | 308° |
| 2026-04-27 14:45 | 58.87767 | -138.27603 | 8504 ft | 112 kts | 308° |
| 2026-04-27 14:46 | 58.88261 | -138.28767 | 8504 ft | 112 kts | 308° |
| 2026-04-27 14:46 | 58.88756 | -138.29935 | 8504 ft | 112 kts | 308° |
| 2026-04-27 14:46 | 58.89251 | -138.31101 | 8504 ft | 112 kts | 308° |
| 2026-04-27 14:46 | 58.89746 | -138.32271 | 8505 ft | 113 kts | 308° |
| 2026-04-27 14:47 | 58.90242 | -138.33443 | 8505 ft | 113 kts | 308° |
| 2026-04-27 14:47 | 58.90739 | -138.34618 | 8505 ft | 113 kts | 308° |
| 2026-04-27 14:47 | 58.91236 | -138.35794 | 8505 ft | 113 kts | 308° |
| 2026-04-27 14:47 | 58.91734 | -138.36972 | 8505 ft | 113 kts | 308° |
| 2026-04-27 14:48 | 58.92233 | -138.38154 | 8506 ft | 113 kts | 308° |
| 2026-04-27 14:48 | 58.93227 | -138.40510 | 8539 ft | 112 kts | 308° |
| 2026-04-27 14:48 | 58.93720 | -138.41678 | 8545 ft | 112 kts | 308° |
| 2026-04-27 14:49 | 58.94216 | -138.42855 | 8530 ft | 114 kts | 308° |
| 2026-04-27 14:49 | 58.94724 | -138.44060 | 8509 ft | 116 kts | 308° |
| 2026-04-27 14:49 | 58.95232 | -138.45269 | 8503 ft | 116 kts | 308° |
| 2026-04-27 14:49 | 58.95740 | -138.46475 | 8502 ft | 115 kts | 308° |
| 2026-04-27 14:50 | 58.96245 | -138.47676 | 8502 ft | 115 kts | 308° |
| 2026-04-27 14:50 | 58.96751 | -138.48878 | 8502 ft | 115 kts | 308° |
| 2026-04-27 14:50 | 58.97256 | -138.50080 | 8501 ft | 115 kts | 308° |
| 2026-04-27 14:50 | 58.97762 | -138.51285 | 8502 ft | 115 kts | 308° |
| 2026-04-27 14:51 | 58.98268 | -138.52490 | 8502 ft | 116 kts | 308° |
| 2026-04-27 14:51 | 58.98775 | -138.53698 | 8502 ft | 116 kts | 308° |
| 2026-04-27 14:51 | 58.99282 | -138.54906 | 8502 ft | 116 kts | 308° |
| 2026-04-27 14:51 | 58.99623 | -138.55720 | 8503 ft | 116 kts | 308° |
| 2026-04-27 14:52 | 59.00295 | -138.57323 | 8503 ft | 116 kts | 308° |
| 2026-04-27 14:52 | 59.00808 | -138.58550 | 8503 ft | 116 kts | 308° |
| 2026-04-27 14:52 | 59.01316 | -138.59762 | 8503 ft | 116 kts | 308° |
| 2026-04-27 14:52 | 59.01825 | -138.60980 | 8504 ft | 116 kts | 308° |
| 2026-04-27 14:53 | 59.02335 | -138.62199 | 8504 ft | 117 kts | 308° |
| 2026-04-27 14:53 | 59.02845 | -138.63419 | 8504 ft | 117 kts | 308° |
| 2026-04-27 14:53 | 59.03355 | -138.64641 | 8504 ft | 117 kts | 308° |
| 2026-04-27 14:53 | 59.03865 | -138.65863 | 8504 ft | 117 kts | 308° |
| 2026-04-27 14:54 | 59.04376 | -138.67086 | 8505 ft | 117 kts | 308° |
| 2026-04-27 14:54 | 59.04886 | -138.68309 | 8505 ft | 117 kts | 308° |
| 2026-04-27 14:54 | 59.05396 | -138.69533 | 8505 ft | 117 kts | 308° |
| 2026-04-27 14:54 | 59.05908 | -138.70763 | 8505 ft | 117 kts | 308° |
| 2026-04-27 14:55 | 59.06421 | -138.71995 | 8506 ft | 118 kts | 308° |
| 2026-04-27 14:55 | 59.06935 | -138.73230 | 8506 ft | 118 kts | 308° |
| 2026-04-27 14:55 | 59.07455 | -138.74481 | 8507 ft | 118 kts | 308° |
| 2026-04-27 14:55 | 59.07968 | -138.75715 | 8508 ft | 118 kts | 308° |
| 2026-04-27 14:56 | 59.08309 | -138.76534 | 8508 ft | 118 kts | 308° |
| 2026-04-27 14:56 | 59.08996 | -138.78189 | 8508 ft | 118 kts | 308° |
| 2026-04-27 14:56 | 59.09337 | -138.79011 | 8508 ft | 118 kts | 308° |
| 2026-04-27 14:56 | 59.09851 | -138.80249 | 8508 ft | 118 kts | 308° |
| 2026-04-27 14:57 | 59.10365 | -138.81490 | 8508 ft | 118 kts | 308° |
| 2026-04-27 14:57 | 59.10880 | -138.82733 | 8507 ft | 119 kts | 308° |
| 2026-04-27 14:57 | 59.11398 | -138.83982 | 8503 ft | 119 kts | 308° |
| 2026-04-27 14:57 | 59.11924 | -138.85252 | 8501 ft | 119 kts | 308° |
| 2026-04-27 14:58 | 59.12442 | -138.86504 | 8501 ft | 119 kts | 308° |
| 2026-04-27 14:58 | 59.12960 | -138.87757 | 8501 ft | 119 kts | 308° |
| 2026-04-27 14:58 | 59.13478 | -138.89010 | 8501 ft | 119 kts | 308° |
| 2026-04-27 14:58 | 59.13995 | -138.90262 | 8502 ft | 119 kts | 307° |
| 2026-04-27 14:59 | 59.14513 | -138.91516 | 8501 ft | 119 kts | 307° |
| 2026-04-27 14:59 | 59.15030 | -138.92770 | 8502 ft | 119 kts | 307° |
| 2026-04-27 14:59 | 59.15548 | -138.94026 | 8502 ft | 119 kts | 307° |
| 2026-04-27 14:59 | 59.16066 | -138.95281 | 8502 ft | 119 kts | 308° |
| 2026-04-27 15:00 | 59.16584 | -138.96538 | 8502 ft | 119 kts | 308° |
| 2026-04-27 15:00 | 59.17104 | -138.97801 | 8503 ft | 120 kts | 308° |
| 2026-04-27 15:00 | 59.17624 | -138.99064 | 8503 ft | 120 kts | 308° |
| 2026-04-27 15:00 | 59.18144 | -139.00330 | 8503 ft | 120 kts | 307° |
| 2026-04-27 15:01 | 59.18671 | -139.01612 | 8503 ft | 120 kts | 307° |
| 2026-04-27 15:01 | 59.19192 | -139.02879 | 8503 ft | 120 kts | 307° |
| 2026-04-27 15:01 | 59.19713 | -139.04148 | 8503 ft | 120 kts | 307° |
| 2026-04-27 15:01 | 59.20233 | -139.05414 | 8503 ft | 120 kts | 307° |
| 2026-04-27 15:02 | 59.20755 | -139.06686 | 8500 ft | 120 kts | 308° |
| 2026-04-27 15:02 | 59.21277 | -139.07961 | 8499 ft | 121 kts | 308° |
| 2026-04-27 15:02 | 59.21801 | -139.09240 | 8499 ft | 121 kts | 308° |
| 2026-04-27 15:02 | 59.22324 | -139.10517 | 8499 ft | 121 kts | 307° |
| 2026-04-27 15:03 | 59.22849 | -139.11798 | 8499 ft | 121 kts | 307° |
| 2026-04-27 15:03 | 59.23372 | -139.13077 | 8500 ft | 121 kts | 307° |
| 2026-04-27 15:03 | 59.23897 | -139.14360 | 8500 ft | 121 kts | 307° |
| 2026-04-27 15:03 | 59.24419 | -139.15639 | 8500 ft | 121 kts | 307° |
| 2026-04-27 15:04 | 59.24904 | -139.16823 | 8486 ft | 102 kts | 307° |
| 2026-04-27 15:04 | 59.25336 | -139.17883 | 8342 ft | 100 kts | 307° |
| 2026-04-27 15:04 | 59.25770 | -139.18948 | 8209 ft | 98 kts | 307° |
| 2026-04-27 15:04 | 59.26194 | -139.19986 | 8078 ft | 97 kts | 307° |
| 2026-04-27 15:05 | 59.26615 | -139.21020 | 7947 ft | 97 kts | 307° |
| 2026-04-27 15:05 | 59.27031 | -139.22042 | 7819 ft | 97 kts | 307° |
| 2026-04-27 15:05 | 59.27452 | -139.23075 | 7690 ft | 96 kts | 307° |
| 2026-04-27 15:05 | 59.27868 | -139.24097 | 7563 ft | 96 kts | 307° |
| 2026-04-27 15:06 | 59.28284 | -139.25120 | 7436 ft | 96 kts | 307° |
| 2026-04-27 15:06 | 59.28700 | -139.26143 | 7311 ft | 96 kts | 307° |
| 2026-04-27 15:06 | 59.29117 | -139.27168 | 7186 ft | 96 kts | 307° |
| 2026-04-27 15:06 | 59.29531 | -139.28198 | 7061 ft | 96 kts | 305° |
| 2026-04-27 15:07 | 59.29903 | -139.29287 | 6937 ft | 96 kts | 302° |
| 2026-04-27 15:07 | 59.30261 | -139.30394 | 6813 ft | 96 kts | 301° |
| 2026-04-27 15:07 | 59.30615 | -139.31503 | 6689 ft | 97 kts | 301° |
| 2026-04-27 15:07 | 59.30971 | -139.32623 | 6564 ft | 97 kts | 301° |
| 2026-04-27 15:08 | 59.31327 | -139.33745 | 6439 ft | 98 kts | 301° |
| 2026-04-27 15:08 | 59.31684 | -139.34875 | 6315 ft | 98 kts | 301° |
| 2026-04-27 15:08 | 59.32048 | -139.36024 | 6190 ft | 98 kts | 301° |
| 2026-04-27 15:08 | 59.32403 | -139.37147 | 6068 ft | 98 kts | 301° |
| 2026-04-27 15:09 | 59.32767 | -139.38300 | 5943 ft | 99 kts | 301° |
| 2026-04-27 15:09 | 59.33108 | -139.39379 | 5826 ft | 99 kts | 301° |
| 2026-04-27 15:09 | 59.33382 | -139.40249 | 5732 ft | 99 kts | 301° |
| 2026-04-27 15:09 | 59.33742 | -139.41391 | 5608 ft | 99 kts | 301° |
| 2026-04-27 15:10 | 59.34102 | -139.42533 | 5485 ft | 99 kts | 301° |
| 2026-04-27 15:10 | 59.34459 | -139.43665 | 5356 ft | 97 kts | 301° |
| 2026-04-27 15:10 | 59.34810 | -139.44777 | 5225 ft | 96 kts | 301° |
| 2026-04-27 15:10 | 59.35157 | -139.45881 | 5097 ft | 95 kts | 301° |
| 2026-04-27 15:11 | 59.35505 | -139.46986 | 4969 ft | 95 kts | 301° |
| 2026-04-27 15:11 | 59.35852 | -139.48089 | 4842 ft | 95 kts | 301° |
| 2026-04-27 15:11 | 59.36198 | -139.49191 | 4716 ft | 95 kts | 301° |
| 2026-04-27 15:11 | 59.36544 | -139.50291 | 4590 ft | 95 kts | 301° |
| 2026-04-27 15:12 | 59.36894 | -139.51405 | 4463 ft | 95 kts | 301° |
| 2026-04-27 15:12 | 59.37238 | -139.52502 | 4338 ft | 95 kts | 301° |
| 2026-04-27 15:12 | 59.37582 | -139.53599 | 4212 ft | 94 kts | 301° |
| 2026-04-27 15:12 | 59.37926 | -139.54693 | 4087 ft | 94 kts | 301° |
| 2026-04-27 15:13 | 59.38268 | -139.55787 | 3962 ft | 94 kts | 301° |
| 2026-04-27 15:13 | 59.38612 | -139.56882 | 3838 ft | 94 kts | 301° |
| 2026-04-27 15:13 | 59.38955 | -139.57979 | 3712 ft | 95 kts | 301° |
| 2026-04-27 15:13 | 59.39300 | -139.59079 | 3588 ft | 95 kts | 301° |
| 2026-04-27 15:14 | 59.39648 | -139.60191 | 3463 ft | 95 kts | 301° |
| 2026-04-27 15:14 | 59.39993 | -139.61296 | 3339 ft | 95 kts | 302° |
| 2026-04-27 15:14 | 59.40339 | -139.62402 | 3215 ft | 95 kts | 302° |
| 2026-04-27 15:14 | 59.40684 | -139.63506 | 3092 ft | 95 kts | 302° |
| 2026-04-27 15:15 | 59.41030 | -139.64615 | 2967 ft | 95 kts | 302° |
| 2026-04-27 15:15 | 59.41376 | -139.65721 | 2844 ft | 95 kts | 302° |
| 2026-04-27 15:15 | 59.41722 | -139.66831 | 2720 ft | 95 kts | 302° |
| 2026-04-27 15:15 | 59.42068 | -139.67940 | 2596 ft | 95 kts | 302° |
| 2026-04-27 15:16 | 59.42415 | -139.69035 | 2493 ft | 93 kts | 305° |
| 2026-04-27 15:16 | 59.42936 | -139.69655 | 2429 ft | 90 kts | 349° |
| 2026-04-27 15:16 | 59.43567 | -139.69509 | 2296 ft | 91 kts | 20° |
| 2026-04-27 15:16 | 59.44096 | -139.68857 | 2199 ft | 90 kts | 41° |
| 2026-04-27 15:17 | 59.44541 | -139.68022 | 2111 ft | 88 kts | 44° |
| 2026-04-27 15:17 | 59.44971 | -139.67158 | 2001 ft | 89 kts | 45° |
| 2026-04-27 15:17 | 59.45395 | -139.66292 | 1916 ft | 87 kts | 47° |
| 2026-04-27 15:17 | 59.45769 | -139.65334 | 1754 ft | 90 kts | 54° |
| 2026-04-27 15:18 | 59.46085 | -139.64301 | 1613 ft | 87 kts | 62° |
| 2026-04-27 15:18 | 59.46344 | -139.63231 | 1408 ft | 88 kts | 68° |
| 2026-04-27 15:18 | 59.46606 | -139.62157 | 1217 ft | 86 kts | 57° |
| 2026-04-27 15:18 | 59.47042 | -139.61422 | 1054 ft | 84 kts | 30° |
| 2026-04-27 15:19 | 59.47586 | -139.61093 | 897 ft | 82 kts | 8° |
| 2026-04-27 15:19 | 59.48156 | -139.61051 | 734 ft | 81 kts | 352° |
| 2026-04-27 15:19 | 59.48659 | -139.61583 | 524 ft | 85 kts | 321° |
| 2026-04-27 15:19 | 59.49087 | -139.62409 | 318 ft | 86 kts | 315° |
| 2026-04-27 15:20 | 59.49505 | -139.63243 | 139 ft | 85 kts | 315° |
| 2026-04-27 15:20 | 59.49906 | -139.64025 | 47 ft | 75 kts | 316° |
| 2026-04-27 15:20 | 59.50232 | -139.64661 | 37 ft | 58 kts | 316° |
| 2026-04-27 15:20 | 59.50479 | -139.65152 | 37 ft | 44 kts | 313° |
| 2026-04-27 15:21 | 59.50664 | -139.65538 | 37 ft | 34 kts | 315° |
| 2026-04-27 15:21 | 59.50808 | -139.65819 | 37 ft | 24 kts | 315° |
| 2026-04-27 15:21 | 59.50914 | -139.66025 | 37 ft | 21 kts | 316° |
| 2026-04-27 15:21 | 59.50995 | -139.66190 | 37 ft | 13 kts | 290° |
| 2026-04-27 15:22 | 59.50959 | -139.66322 | 37 ft | 13 kts | 227° |
| 2026-04-27 15:22 | 59.50892 | -139.66458 | 37 ft | 15 kts | 225° |
| 2026-04-27 15:22 | 59.50811 | -139.66618 | 37 ft | 19 kts | 225° |
| 2026-04-27 15:22 | 59.50719 | -139.66797 | 37 ft | 15 kts | 224° |
| 2026-04-27 15:23 | 59.50698 | -139.66913 | 37 ft | 10 kts | 299° |
| 2026-04-27 15:23 | 59.50738 | -139.67035 | 37 ft | 8 kts | 344° |
| 2026-04-27 15:23 | 59.50753 | -139.67013 | 37 ft | 0 kts | 77° |